Time;durP1;ratioP1;P1;durP2;ratioP2;P2;SDS_P1;SDS_P2;PMS_P1;PMS_P2;Temp;Humidity;BMP_temperature;BMP_pressure;BME280_temperature;BME280_humidity;BME280_pressure;Samples;Min_cycle;Max_cycle;Signal;HPM_P1;HPM_P2
2022/10/17 00:01:55;;;;;;;;;11.33;10.67;;;;;18.87;78.97;101026.38;4995558;27;45412;-66
2022/10/17 00:04:21;;;;;;;;;16.33;15.33;;;;;18.86;78.58;101038.75;4990187;27;45553;-67
2022/10/17 00:06:46;;;;;;;;;10.67;10.67;;;;;18.69;79.01;101020.59;4992169;27;45526;-67
2022/10/17 00:09:12;;;;;;;;;11.33;9.33;;;;;18.77;79.14;101039.88;4990077;27;45463;-67
2022/10/17 00:11:38;;;;;;;;;13.67;10.67;;;;;18.59;79.22;101000.53;4987645;27;45424;-66
2022/10/17 00:14:04;;;;;;;;;10.67;9.33;;;;;18.80;79.02;101038.94;4995284;27;45684;-70
2022/10/17 00:16:35;;;;;;;;;11.00;10.00;;;;;18.82;79.00;101043.28;4988826;27;45467;-67
2022/10/17 00:19:00;;;;;;;;;11.33;9.67;;;;;18.80;79.07;101042.44;4988334;27;46544;-69
2022/10/17 00:21:26;;;;;;;;;13.00;7.00;;;;;18.82;78.99;101056.53;4978982;27;45491;-66
2022/10/17 00:23:52;;;;;;;;;9.67;8.67;;;;;18.78;79.14;101046.06;4990252;27;45493;-67
2022/10/17 00:26:19;;;;;;;;;11.00;11.00;;;;;18.76;79.00;101047.84;4999640;27;45504;-69
2022/10/17 00:28:49;;;;;;;;;13.00;12.67;;;;;18.68;79.26;101032.13;4990279;27;45990;-68
2022/10/17 00:31:17;;;;;;;;;12.67;10.00;;;;;18.73;79.27;101048.78;4990258;27;45806;-67
2022/10/17 00:33:43;;;;;;;;;11.67;11.67;;;;;18.76;78.98;101051.38;4987455;27;45303;-66
2022/10/17 00:36:14;;;;;;;;;14.00;11.33;;;;;18.74;79.30;101050.53;4986116;27;45402;-65
2022/10/17 00:38:41;;;;;;;;;8.67;8.67;;;;;18.76;79.00;101059.34;4982086;27;45372;-66
2022/10/17 00:41:09;;;;;;;;;7.33;7.33;;;;;18.70;79.07;101048.00;4990678;27;45435;-68
2022/10/17 00:44:13;;;;;;;;;12.00;11.00;;;;;18.78;78.90;101061.97;4987698;27;45482;-68
2022/10/17 00:46:39;;;;;;;;;11.00;10.33;;;;;18.72;78.60;101067.41;4998521;28;45410;-68
2022/10/17 00:49:10;;;;;;;;;13.33;11.00;;;;;18.67;78.52;101053.38;4979440;27;45537;-68
2022/10/17 00:51:46;;;;;;;;;13.00;9.00;;;;;18.75;78.65;101057.59;5002394;27;45519;-68
2022/10/17 00:54:14;;;;;;;;;14.00;12.33;;;;;18.71;78.65;101052.41;4991738;27;45498;-66
2022/10/17 00:56:41;;;;;;;;;17.33;12.67;;;;;18.77;78.11;101054.91;4990737;27;45663;-67
2022/10/17 00:59:09;;;;;;;;;13.33;9.00;;;;;18.79;78.30;101050.44;4990797;27;45832;-66
2022/10/17 01:01:35;;;;;;;;;12.00;11.67;;;;;18.73;77.80;101051.44;4983419;27;45430;-68
2022/10/17 01:04:01;;;;;;;;;11.33;10.33;;;;;18.81;77.96;101056.56;4992457;27;45485;-68
2022/10/17 01:06:26;;;;;;;;;14.00;10.67;;;;;18.81;77.58;101064.53;4986587;27;45681;-66
2022/10/17 01:08:52;;;;;;;;;9.33;9.33;;;;;18.70;77.46;101048.00;4992474;27;46280;-72
2022/10/17 01:11:32;;;;;;;;;13.00;10.67;;;;;18.81;77.36;101062.75;4976839;27;45767;-67
2022/10/17 01:14:30;;;;;;;;;8.67;8.67;;;;;18.78;77.08;101043.41;4992204;27;45638;-65
2022/10/17 01:17:03;;;;;;;;;12.00;10.67;;;;;18.80;76.98;101052.19;5000752;27;45575;-67
2022/10/17 01:19:58;;;;;;;;;9.00;9.00;;;;;18.77;76.73;101039.88;4984087;27;45574;-71
2022/10/17 01:22:40;;;;;;;;;9.67;8.67;;;;;18.74;76.73;101047.88;4985740;27;45481;-69
2022/10/17 01:25:17;;;;;;;;;11.33;9.00;;;;;18.83;76.53;101068.88;5005658;27;45556;-70
2022/10/17 01:28:06;;;;;;;;;10.33;9.00;;;;;18.79;76.15;101061.03;4985535;27;45736;-67
2022/10/17 01:30:53;;;;;;;;;11.00;9.67;;;;;18.85;76.33;101071.50;4993246;27;45501;-69
2022/10/17 01:33:57;;;;;;;;;13.33;11.33;;;;;18.85;75.71;101075.03;4990271;27;45528;-69
2022/10/17 01:36:41;;;;;;;;;14.00;11.33;;;;;18.85;75.17;101077.69;5035789;28;45640;-67
2022/10/17 01:39:24;;;;;;;;;9.67;9.67;;;;;18.81;74.97;101065.41;4993273;27;45452;-66
2022/10/17 01:41:50;;;;;;;;;8.33;8.33;;;;;18.82;75.24;101069.81;4989124;27;45700;-67
2022/10/17 01:44:28;;;;;;;;;10.33;9.33;;;;;18.86;75.24;101075.91;4993835;27;45479;-67
2022/10/17 01:47:00;;;;;;;;;9.67;8.67;;;;;18.79;74.91;101072.56;4994220;27;45697;-67
2022/10/17 01:49:30;;;;;;;;;13.67;9.33;;;;;18.83;74.71;101081.28;4990123;27;45357;-67
2022/10/17 01:52:09;;;;;;;;;10.67;9.67;;;;;18.78;74.66;101083.19;4990959;27;46569;-68
2022/10/17 01:54:50;;;;;;;;;13.67;11.33;;;;;18.78;74.83;101083.19;4977479;27;45658;-66
2022/10/17 01:57:32;;;;;;;;;10.00;9.00;;;;;18.73;74.70;101080.63;4980839;27;45437;-65
2022/10/17 02:00:01;;;;;;;;;11.00;8.67;;;;;18.74;74.56;101078.84;4991894;27;45634;-67
2022/10/17 02:02:27;;;;;;;;;10.00;10.00;;;;;18.72;74.55;101073.59;4991353;27;48162;-66
2022/10/17 02:04:55;;;;;;;;;11.67;10.67;;;;;18.60;74.06;101063.28;4996043;27;45355;-68
2022/10/17 02:07:22;;;;;;;;;10.67;9.33;;;;;18.67;74.36;101072.81;4984229;27;45518;-68
2022/10/17 02:09:48;;;;;;;;;11.67;8.00;;;;;18.70;74.40;101079.84;4991079;27;45430;-69
2022/10/17 02:12:25;;;;;;;;;10.33;9.33;;;;;18.72;74.23;101078.00;4991435;27;45553;-66
2022/10/17 02:15:18;;;;;;;;;9.00;9.00;;;;;18.72;74.63;101070.06;4995550;27;45422;-69
2022/10/17 02:18:05;;;;;;;;;8.00;8.00;;;;;18.70;74.21;101080.72;4993280;27;45734;-67
2022/10/17 02:20:39;;;;;;;;;9.00;8.33;;;;;18.71;74.40;101081.59;4987834;27;45683;-66
2022/10/17 02:23:20;;;;;;;;;9.33;9.33;;;;;18.71;74.09;101081.59;4989695;27;46661;-66
2022/10/17 02:26:01;;;;;;;;;10.00;9.33;;;;;18.71;74.30;101081.59;4990100;27;45642;-67
2022/10/17 02:28:53;;;;;;;;;11.33;8.67;;;;;18.69;74.70;101073.66;4989247;27;45474;-66
2022/10/17 02:31:28;;;;;;;;;9.33;8.67;;;;;18.65;74.06;101074.69;4985037;27;45362;-66
2022/10/17 02:34:01;;;;;;;;;8.67;8.67;;;;;18.38;74.13;101015.25;4988660;27;46469;-66
2022/10/17 02:36:37;;;;;;;;;10.00;9.00;;;;;18.64;74.54;101046.38;4989499;27;46206;-66
2022/10/17 02:39:05;;;;;;;;;8.67;7.00;;;;;18.61;74.57;101049.13;4989731;27;45520;-68
2022/10/17 02:41:32;;;;;;;;;9.67;7.00;;;;;18.70;74.54;101054.19;4989732;27;45497;-66
2022/10/17 02:44:01;;;;;;;;;9.33;9.33;;;;;18.66;74.41;101049.88;4988160;27;46970;-66
2022/10/17 02:46:28;;;;;;;;;9.67;7.67;;;;;18.58;74.26;101050.09;4969554;28;45791;-67
2022/10/17 02:49:13;;;;;;;;;9.00;7.67;;;;;18.60;74.54;101047.38;4980655;27;45567;-66
2022/10/17 02:51:50;;;;;;;;;10.00;9.33;;;;;18.69;74.61;101068.34;4992449;27;45400;-66
2022/10/17 02:54:33;;;;;;;;;9.67;8.00;;;;;18.69;74.71;101072.78;4978805;27;45539;-67
2022/10/17 02:57:06;;;;;;;;;11.00;9.33;;;;;18.65;74.72;101086.16;4977215;27;45469;-67
2022/10/17 02:59:33;;;;;;;;;10.00;8.33;;;;;18.60;74.77;101082.75;4986825;27;45409;-66
2022/10/17 03:02:03;;;;;;;;;9.33;8.33;;;;;18.59;74.84;101083.66;4980951;27;45354;-65
2022/10/17 03:04:29;;;;;;;;;11.33;9.00;;;;;18.61;74.80;101083.63;4989605;27;47305;-66
2022/10/17 03:06:55;;;;;;;;;7.67;7.67;;;;;18.57;74.84;101077.50;4984940;27;45421;-67
2022/10/17 03:09:21;;;;;;;;;10.00;8.00;;;;;18.39;74.85;101040.88;4981922;27;45370;-67
2022/10/17 03:11:46;;;;;;;;;13.00;9.33;;;;;18.55;74.88;101067.84;4990537;27;45859;-66
2022/10/17 03:14:12;;;;;;;;;10.00;10.00;;;;;18.60;74.92;101079.19;4990959;27;46122;-66
2022/10/17 03:16:37;;;;;;;;;9.00;9.00;;;;;18.56;74.84;101085.53;4988441;27;45437;-67
2022/10/17 03:19:03;;;;;;;;;9.67;8.00;;;;;18.47;74.66;101075.13;4993622;27;45428;-66
2022/10/17 03:21:29;;;;;;;;;9.00;9.00;;;;;18.45;74.80;101075.16;4993514;27;45693;-66
2022/10/17 03:23:54;;;;;;;;;12.33;10.67;;;;;18.48;74.97;101079.53;4990465;27;46115;-66
2022/10/17 03:26:20;;;;;;;;;9.33;9.33;;;;;18.48;74.72;101091.00;4981743;27;45552;-67
2022/10/17 03:28:45;;;;;;;;;8.33;7.33;;;;;18.47;74.99;101080.44;4990649;27;45560;-67
2022/10/17 03:31:15;;;;;;;;;8.33;8.33;;;;;18.12;74.88;101035.31;4990987;27;45442;-67
2022/10/17 03:33:41;;;;;;;;;11.67;8.67;;;;;18.35;75.06;101089.56;4989907;27;45802;-66
2022/10/17 03:36:14;;;;;;;;;7.67;7.67;;;;;18.38;74.89;101089.50;4990396;27;45394;-69
2022/10/17 03:38:41;;;;;;;;;9.00;8.00;;;;;18.43;74.44;101100.84;4984542;27;45314;-69
2022/10/17 03:41:10;;;;;;;;;9.33;8.33;;;;;18.39;74.12;101109.81;4994702;27;45409;-67
2022/10/17 03:43:36;;;;;;;;;8.00;8.00;;;;;18.43;74.11;101128.25;4994899;27;45471;-70
2022/10/17 03:46:02;;;;;;;;;9.33;7.00;;;;;18.49;73.98;101119.28;4991403;27;45294;-72
2022/10/17 03:48:29;;;;;;;;;8.00;7.33;;;;;18.59;73.61;101135.84;4990854;27;45600;-70
2022/10/17 03:51:20;;;;;;;;;7.67;7.67;;;;;18.63;73.56;101137.50;4990078;27;45511;-73
2022/10/17 03:53:58;;;;;;;;;7.00;6.33;;;;;18.09;72.96;101043.34;4983450;27;46381;-71
2022/10/17 03:56:24;;;;;;;;;7.00;7.00;;;;;18.36;72.70;101093.97;4994563;27;45495;-68
2022/10/17 03:58:59;;;;;;;;;10.00;8.00;;;;;18.59;72.76;101138.47;4990089;27;45347;-66
2022/10/17 04:01:26;;;;;;;;;9.33;8.33;;;;;18.56;72.33;101144.75;4984432;27;45614;-66
2022/10/17 04:03:54;;;;;;;;;10.00;9.00;;;;;18.49;72.65;101129.88;5014195;27;46078;-67
2022/10/17 04:06:20;;;;;;;;;11.33;8.33;;;;;18.47;72.57;101137.00;4994658;27;45327;-66
2022/10/17 04:08:47;;;;;;;;;11.33;9.33;;;;;18.50;72.18;101152.84;4995957;27;45401;-67
2022/10/17 04:11:19;;;;;;;;;8.00;8.00;;;;;18.49;72.49;101150.25;4996119;27;45495;-66
2022/10/17 04:13:45;;;;;;;;;6.00;6.00;;;;;18.48;71.74;101151.13;4994251;27;46352;-67
2022/10/17 04:16:16;;;;;;;;;9.00;8.67;;;;;18.42;72.25;101137.13;4997117;27;45309;-66
2022/10/17 04:18:42;;;;;;;;;8.33;8.33;;;;;18.47;71.63;101134.34;4995820;27;45354;-65
2022/10/17 04:21:10;;;;;;;;;9.67;7.67;;;;;18.51;72.08;101146.63;4997207;27;45536;-67
2022/10/17 04:23:35;;;;;;;;;10.33;7.00;;;;;18.45;72.06;101133.50;4996046;27;45479;-65
2022/10/17 04:26:02;;;;;;;;;11.00;7.00;;;;;18.50;71.66;101147.53;4987013;27;45532;-67
2022/10/17 04:28:28;;;;;;;;;11.33;8.33;;;;;18.47;71.51;101163.53;4987632;27;45411;-67
2022/10/17 04:30:58;;;;;;;;;11.00;8.00;;;;;18.50;72.11;101154.63;4993271;27;45547;-67
2022/10/17 04:33:24;;;;;;;;;7.00;7.00;;;;;18.50;71.64;101147.53;4995322;27;46044;-67
2022/10/17 04:36:04;;;;;;;;;7.67;7.33;;;;;18.48;71.62;101153.78;4987316;27;45737;-68
2022/10/17 04:38:30;;;;;;;;;8.33;8.33;;;;;18.50;71.44;101165.22;4993605;27;45435;-67
2022/10/17 04:41:03;;;;;;;;;9.33;8.00;;;;;18.49;71.25;101168.81;4996957;27;45491;-69
2022/10/17 04:43:30;;;;;;;;;8.67;8.33;;;;;18.49;71.04;101168.81;4995276;27;46869;-68
2022/10/17 04:46:00;;;;;;;;;7.00;7.00;;;;;18.47;71.01;101166.19;4993768;27;45488;-68
2022/10/17 04:48:26;;;;;;;;;9.00;7.00;;;;;18.57;71.33;101170.34;4985870;27;45505;-67
2022/10/17 04:50:53;;;;;;;;;9.67;9.67;;;;;18.52;70.78;101161.63;5001734;27;46241;-67
2022/10/17 04:53:19;;;;;;;;;4.67;4.67;;;;;18.53;70.80;101173.09;4995184;27;46833;-70
2022/10/17 04:55:45;;;;;;;;;8.00;7.33;;;;;18.47;71.23;101174.13;4994765;27;45410;-68
2022/10/17 04:58:10;;;;;;;;;7.00;7.00;;;;;18.44;70.92;101177.75;4992554;27;45402;-67
2022/10/17 05:00:36;;;;;;;;;8.33;8.33;;;;;18.56;70.67;101192.50;4983046;27;45604;-70
2022/10/17 05:03:01;;;;;;;;;9.33;8.67;;;;;18.44;70.51;101176.88;4991381;27;46690;-71
2022/10/17 05:05:27;;;;;;;;;9.00;9.00;;;;;18.49;70.86;101190.91;4987582;27;45640;-70
2022/10/17 05:07:52;;;;;;;;;6.67;6.67;;;;;18.40;70.55;101185.78;4986237;27;45857;-70
2022/10/17 05:10:18;;;;;;;;;8.33;8.00;;;;;18.50;70.83;101205.88;4994046;27;45412;-73
2022/10/17 05:12:46;;;;;;;;;9.33;9.00;;;;;18.46;70.73;101214.84;4993894;27;45408;-71
2022/10/17 05:15:12;;;;;;;;;10.00;9.33;;;;;18.43;71.12;101214.88;4982216;27;45361;-70
2022/10/17 05:17:37;;;;;;;;;8.67;8.67;;;;;18.38;71.12;101200.88;4994410;27;45389;-68
2022/10/17 05:20:07;;;;;;;;;9.67;8.67;;;;;18.43;70.73;101214.88;5005344;27;45510;-67
2022/10/17 05:22:32;;;;;;;;;10.00;8.33;;;;;18.50;70.68;101231.53;4992527;27;45496;-66
2022/10/17 05:24:58;;;;;;;;;11.67;9.00;;;;;18.49;71.24;101219.19;4990045;27;45510;-66
2022/10/17 05:27:24;;;;;;;;;8.00;8.00;;;;;18.49;71.44;101220.06;4991266;27;45390;-67
2022/10/17 05:29:50;;;;;;;;;9.00;8.00;;;;;18.47;71.61;101216.56;4996250;27;45472;-67
2022/10/17 05:32:15;;;;;;;;;9.33;8.67;;;;;18.40;71.40;101201.72;4977372;27;45340;-68
2022/10/17 05:34:41;;;;;;;;;10.67;6.33;;;;;18.42;71.04;101216.69;4992972;27;45339;-66
2022/10/17 05:37:06;;;;;;;;;10.33;9.00;;;;;18.41;71.79;101217.59;4995092;28;45359;-66
2022/10/17 05:39:32;;;;;;;;;9.00;8.00;;;;;18.32;72.07;101216.91;4996119;27;45595;-67
2022/10/17 05:41:57;;;;;;;;;8.67;8.67;;;;;18.42;71.62;101223.78;4995704;27;45406;-66
2022/10/17 05:44:23;;;;;;;;;9.00;7.00;;;;;18.46;71.59;101224.56;4991415;27;45609;-67
2022/10/17 05:46:49;;;;;;;;;9.33;7.00;;;;;18.46;71.66;101227.22;4992001;27;45333;-68
2022/10/17 05:49:15;;;;;;;;;10.00;8.67;;;;;18.33;72.08;101213.38;4990187;27;45780;-65
2022/10/17 05:51:41;;;;;;;;;11.00;8.00;;;;;18.43;71.60;101223.72;4991073;27;45511;-67
2022/10/17 05:54:08;;;;;;;;;11.00;9.33;;;;;18.43;71.41;101210.44;4990127;27;45871;-65
2022/10/17 05:56:34;;;;;;;;;10.00;9.67;;;;;18.47;71.98;101216.56;4994017;27;45400;-69
2022/10/17 05:58:59;;;;;;;;;10.00;7.67;;;;;18.41;72.35;101212.28;4993773;27;45244;-67
2022/10/17 06:01:25;;;;;;;;;9.33;8.33;;;;;18.35;72.79;101201.81;4989747;27;46608;-67
2022/10/17 06:03:51;;;;;;;;;9.00;6.33;;;;;18.42;73.09;101210.50;4992343;27;45485;-67
2022/10/17 06:06:17;;;;;;;;;8.00;7.33;;;;;18.42;72.59;101214.03;4982226;27;45390;-68
2022/10/17 06:08:44;;;;;;;;;11.67;10.00;;;;;18.41;73.10;101211.41;4991427;27;45596;-67
2022/10/17 06:11:10;;;;;;;;;10.00;9.33;;;;;18.34;73.13;101199.19;4990134;27;47265;-67
2022/10/17 06:13:37;;;;;;;;;10.67;7.67;;;;;18.34;73.39;101210.69;4990179;27;45497;-68
2022/10/17 06:16:03;;;;;;;;;11.00;8.33;;;;;18.32;73.34;101220.47;4984109;28;45683;-70
2022/10/17 06:18:28;;;;;;;;;12.00;9.67;;;;;18.32;73.54;101228.41;5090278;27;45517;-68
2022/10/17 06:21:00;;;;;;;;;8.33;8.33;;;;;18.33;73.37;101219.53;4976742;27;45586;-67
2022/10/17 06:23:26;;;;;;;;;10.33;9.00;;;;;18.19;73.57;101201.28;4988539;27;45497;-68
2022/10/17 06:25:52;;;;;;;;;8.33;7.33;;;;;18.29;73.53;101209.03;4991871;27;45543;-66
2022/10/17 06:28:17;;;;;;;;;10.33;8.67;;;;;18.33;73.56;101235.44;4983030;27;45537;-68
2022/10/17 06:30:43;;;;;;;;;9.33;9.33;;;;;18.34;73.72;101245.16;4983543;27;46641;-65
2022/10/17 06:33:09;;;;;;;;;12.00;9.67;;;;;18.30;73.43;101253.22;5087549;27;45402;-67
2022/10/17 06:35:35;;;;;;;;;14.00;11.00;;;;;18.32;73.67;101260.22;4987516;27;45534;-66
2022/10/17 06:38:04;;;;;;;;;8.67;8.67;;;;;18.26;74.05;101268.31;4992133;27;45470;-67
2022/10/17 06:40:30;;;;;;;;;10.67;9.67;;;;;18.11;73.90;101226.22;5024230;27;45694;-68
2022/10/17 06:42:56;;;;;;;;;13.67;9.67;;;;;18.30;74.00;101272.66;5003853;27;45472;-70
2022/10/17 06:45:22;;;;;;;;;11.00;11.00;;;;;18.27;74.08;101271.81;4992189;27;45508;-67
2022/10/17 06:47:48;;;;;;;;;10.67;10.33;;;;;18.33;74.16;101282.31;4991184;27;45361;-68
2022/10/17 06:50:14;;;;;;;;;10.00;8.00;;;;;18.27;74.35;101285.09;4984030;27;46318;-69
2022/10/17 06:52:40;;;;;;;;;10.33;9.33;;;;;18.33;74.34;101303.53;4988551;27;45700;-69
2022/10/17 06:55:05;;;;;;;;;10.00;9.67;;;;;18.35;73.94;101301.72;4989553;27;45336;-67
2022/10/17 06:57:31;;;;;;;;;9.67;9.00;;;;;18.28;74.18;101290.38;4995682;27;45621;-65
2022/10/17 06:59:57;;;;;;;;;9.67;9.33;;;;;18.33;74.09;101308.84;4993236;27;46039;-66
2022/10/17 07:02:23;;;;;;;;;10.00;9.67;;;;;18.40;73.87;101321.06;4991444;27;45430;-68
2022/10/17 07:04:49;;;;;;;;;11.00;9.33;;;;;18.40;74.04;101326.34;4976186;27;45554;-67
2022/10/17 07:07:15;;;;;;;;;9.33;9.33;;;;;18.35;73.86;101309.69;4990595;27;45622;-68
2022/10/17 07:09:40;;;;;;;;;6.00;6.00;;;;;18.48;73.58;101329.72;4991314;27;46987;-66
2022/10/17 07:12:07;;;;;;;;;9.33;8.00;;;;;18.51;73.22;101339.38;4983630;27;45730;-69
2022/10/17 07:14:34;;;;;;;;;8.67;8.67;;;;;18.56;73.48;101350.78;4990668;27;45505;-68
2022/10/17 07:17:00;;;;;;;;;11.67;9.67;;;;;18.60;73.63;101355.09;4991712;27;45541;-67
2022/10/17 07:19:26;;;;;;;;;9.33;9.33;;;;;18.64;73.11;101364.75;4993491;27;47571;-68
2022/10/17 07:21:52;;;;;;;;;9.33;9.00;;;;;18.64;73.06;101368.28;4980380;27;45594;-66
2022/10/17 07:24:18;;;;;;;;;17.00;11.33;;;;;18.67;73.22;101380.59;4988910;27;45806;-68
2022/10/17 07:26:44;;;;;;;;;10.33;9.00;;;;;18.68;73.11;101385.00;5008406;27;45664;-68
2022/10/17 07:29:10;;;;;;;;;9.33;9.00;;;;;18.46;73.02;101342.16;4989594;27;46764;-68
2022/10/17 07:31:35;;;;;;;;;9.67;8.67;;;;;18.65;72.87;101375.34;4973060;27;45610;-68
2022/10/17 07:34:01;;;;;;;;;10.00;9.33;;;;;18.76;72.68;101390.16;4986773;27;45514;-68
2022/10/17 07:36:27;;;;;;;;;10.67;8.67;;;;;18.72;72.28;101384.03;4982772;27;45408;-66
2022/10/17 07:38:53;;;;;;;;;11.33;10.33;;;;;18.67;72.90;101393.84;4989485;27;45347;-67
2022/10/17 07:41:18;;;;;;;;;7.00;7.00;;;;;18.74;72.52;101397.25;4987856;28;45422;-67
2022/10/17 07:43:44;;;;;;;;;11.00;10.67;;;;;18.84;72.71;101428.06;4990407;27;45485;-68
2022/10/17 07:46:11;;;;;;;;;7.33;7.33;;;;;18.89;72.60;101417.31;4986364;27;45392;-67
2022/10/17 07:48:38;;;;;;;;;8.67;8.67;;;;;18.98;72.55;101430.38;4973469;27;45436;-66
2022/10/17 07:51:06;;;;;;;;;12.00;10.00;;;;;19.07;72.04;101435.50;4983647;27;45503;-68
2022/10/17 07:53:38;;;;;;;;;10.33;9.33;;;;;19.07;71.59;101425.75;4994388;27;45502;-68
2022/10/17 07:56:08;;;;;;;;;11.00;9.33;;;;;19.18;71.78;101451.22;4992116;27;45366;-67
2022/10/17 07:58:35;;;;;;;;;9.33;8.33;;;;;19.07;71.53;101446.13;4980666;27;45457;-69
2022/10/17 08:01:02;;;;;;;;;8.33;8.33;;;;;19.12;72.17;101459.31;4993788;27;45535;-67
2022/10/17 08:03:28;;;;;;;;;9.67;9.67;;;;;18.90;72.15;101435.88;4990619;27;45607;-69
2022/10/17 08:05:57;;;;;;;;;10.67;9.33;;;;;18.99;72.08;101459.56;4989254;27;45410;-67
2022/10/17 08:08:23;;;;;;;;;10.00;10.00;;;;;18.99;72.65;101470.19;4987073;27;45487;-67
2022/10/17 08:10:48;;;;;;;;;7.33;7.33;;;;;18.98;72.66;101467.56;4982670;27;45574;-67
2022/10/17 08:13:14;;;;;;;;;10.33;8.67;;;;;18.95;72.71;101465.84;4985227;27;45486;-68
2022/10/17 08:15:39;;;;;;;;;9.33;9.00;;;;;18.97;72.84;101474.66;4985603;27;45623;-68
2022/10/17 08:18:05;;;;;;;;;8.00;7.33;;;;;18.88;72.77;101452.75;4976909;28;46379;-67
2022/10/17 08:20:30;;;;;;;;;11.00;9.33;;;;;19.05;72.44;101478.03;4972862;28;45744;-68
2022/10/17 08:22:56;;;;;;;;;9.33;8.00;;;;;19.07;72.62;101473.53;4975817;27;45495;-70
2022/10/17 08:25:22;;;;;;;;;9.00;8.33;;;;;19.04;72.59;101470.09;4982675;28;45803;-67
2022/10/17 08:27:48;;;;;;;;;13.67;10.33;;;;;19.13;72.55;101469.91;4978467;28;45476;-68
2022/10/17 08:30:14;;;;;;;;;9.67;8.00;;;;;19.22;72.24;101487.38;4983212;28;45344;-67
2022/10/17 08:32:40;;;;;;;;;10.33;9.00;;;;;19.30;72.31;101497.88;4984509;27;45545;-67
2022/10/17 08:35:06;;;;;;;;;10.33;9.67;;;;;19.34;72.28;101496.88;4981551;27;45742;-68
2022/10/17 08:37:31;;;;;;;;;9.00;9.00;;;;;19.38;72.25;101502.06;4988172;27;46368;-67
2022/10/17 08:39:57;;;;;;;;;9.67;7.33;;;;;19.41;71.89;101501.13;4987334;27;45578;-68
2022/10/17 08:42:54;;;;;;;;;11.33;9.33;;;;;19.41;72.20;101504.69;4987396;27;45284;-66
2022/10/17 08:45:33;;;;;;;;;9.33;9.33;;;;;19.40;72.29;101508.25;4993218;28;45601;-68
2022/10/17 08:48:06;;;;;;;;;11.67;7.67;;;;;19.43;72.05;101516.16;4993256;27;45387;-67
2022/10/17 08:50:48;;;;;;;;;8.67;8.67;;;;;19.45;72.35;101516.97;4983644;28;45693;-69
2022/10/17 08:53:26;;;;;;;;;7.67;7.67;;;;;19.47;72.37;101524.91;4985900;27;45565;-69
2022/10/17 08:55:53;;;;;;;;;8.33;8.33;;;;;19.44;72.51;101517.91;4990562;27;45477;-70
2022/10/17 08:58:33;;;;;;;;;10.00;8.33;;;;;19.48;72.18;101514.28;4986390;27;45417;-67
2022/10/17 09:01:31;;;;;;;;;10.00;8.00;;;;;19.61;71.97;101524.63;4986947;27;45833;-69
2022/10/17 09:04:02;;;;;;;;;10.00;8.33;;;;;19.61;72.04;101537.91;4989617;27;45469;-67
2022/10/17 09:06:34;;;;;;;;;8.00;8.00;;;;;19.62;72.22;101529.00;4978560;27;45378;-67
2022/10/17 09:09:16;;;;;;;;;10.33;8.33;;;;;19.67;71.92;101543.06;4989415;27;45927;-68
2022/10/17 09:12:25;;;;;;;;;9.00;9.00;;;;;19.69;72.03;101550.16;4983773;27;45773;-67
2022/10/17 09:14:59;;;;;;;;;9.00;8.33;;;;;19.71;72.27;101576.66;4990989;27;45447;-67
2022/10/17 09:17:58;;;;;;;;;10.00;9.00;;;;;19.69;72.68;101586.44;4989302;27;45801;-66
2022/10/17 09:20:41;;;;;;;;;10.00;8.67;;;;;19.71;72.85;101584.63;4993307;27;47199;-67
2022/10/17 09:23:16;;;;;;;;;8.33;8.33;;;;;19.67;73.05;101590.88;4987903;27;45606;-67
2022/10/17 09:25:50;;;;;;;;;9.67;7.67;;;;;19.66;72.98;101591.81;4983786;27;46214;-67
2022/10/17 09:28:27;;;;;;;;;7.00;7.00;;;;;19.64;73.72;101605.13;4983961;27;45511;-67
2022/10/17 09:30:58;;;;;;;;;12.33;7.00;;;;;19.64;73.92;101601.59;4995226;27;47728;-67
2022/10/17 09:33:29;;;;;;;;;9.67;6.00;;;;;19.63;73.77;101606.03;5000174;27;45526;-67
2022/10/17 09:35:58;;;;;;;;;9.67;8.67;;;;;19.59;74.09;101596.38;5002702;27;45486;-66
2022/10/17 09:38:35;;;;;;;;;12.33;9.00;;;;;19.58;73.73;101596.44;4986483;27;45664;-67
2022/10/17 09:41:02;;;;;;;;;11.33;10.33;;;;;19.66;74.13;101611.28;4983527;27;45555;-68
2022/10/17 09:43:28;;;;;;;;;10.33;10.00;;;;;19.55;75.08;101601.78;4980206;27;45978;-66
2022/10/17 09:45:57;;;;;;;;;10.33;8.33;;;;;19.57;74.94;101622.09;4989175;27;45495;-67
2022/10/17 09:48:32;;;;;;;;;9.33;8.00;;;;;19.50;75.44;101625.81;4990365;27;45310;-66
2022/10/17 09:51:00;;;;;;;;;9.00;8.00;;;;;19.45;75.72;101617.06;4979892;27;45531;-66
2022/10/17 09:53:32;;;;;;;;;14.00;10.33;;;;;19.43;76.48;101617.13;4987645;27;45855;-68
2022/10/17 09:56:01;;;;;;;;;10.67;9.33;;;;;19.42;76.96;101623.31;4978730;27;46383;-67
2022/10/17 09:58:48;;;;;;;;;11.67;10.67;;;;;19.42;76.83;101617.13;4983871;27;45365;-65
2022/10/17 10:01:30;;;;;;;;;10.00;8.00;;;;;19.42;77.11;101620.66;4975102;28;47849;-67
2022/10/17 10:04:13;;;;;;;;;12.00;8.67;;;;;19.31;76.80;101600.53;4985359;27;45567;-66
2022/10/17 10:07:00;;;;;;;;;13.67;10.00;;;;;19.28;77.63;101599.69;4992275;27;45483;-66
2022/10/17 10:09:29;;;;;;;;;12.33;11.00;;;;;19.38;77.57;101612.78;4988840;27;45828;-67
2022/10/17 10:11:57;;;;;;;;;10.67;9.00;;;;;19.46;77.95;101617.03;5083814;27;47338;-67
2022/10/17 10:14:29;;;;;;;;;11.00;9.00;;;;;19.38;77.90;101615.44;4986551;27;45358;-67
2022/10/17 10:16:55;;;;;;;;;12.00;11.00;;;;;19.10;78.39;101577.94;4983423;27;45385;-67
2022/10/17 10:19:31;;;;;;;;;18.00;13.67;;;;;19.28;78.86;101631.56;4986090;27;45744;-70
2022/10/17 10:22:15;;;;;;;;;11.33;9.33;;;;;19.22;79.75;101623.72;4984076;27;45379;-68
2022/10/17 10:24:42;;;;;;;;;12.00;11.67;;;;;19.20;79.73;101637.94;4986687;27;45820;-68
2022/10/17 10:27:14;;;;;;;;;14.00;13.33;;;;;19.13;80.36;101638.97;4989619;27;45494;-68
2022/10/17 10:29:48;;;;;;;;;15.33;13.00;;;;;19.19;80.70;101674.22;4989701;27;45377;-66
2022/10/17 10:32:35;;;;;;;;;13.67;13.67;;;;;19.14;80.35;101680.53;4979445;27;45578;-67
2022/10/17 10:35:07;;;;;;;;;14.00;13.33;;;;;19.17;80.69;101686.69;5010495;27;45556;-66
2022/10/17 10:37:54;;;;;;;;;15.67;15.00;;;;;19.12;81.29;101688.53;4987503;27;45535;-68
2022/10/17 10:40:26;;;;;;;;;14.67;14.67;;;;;19.11;81.26;101683.25;4984353;27;45605;-68
2022/10/17 10:42:58;;;;;;;;;13.67;12.33;;;;;19.03;81.32;101657.72;4988981;27;45795;-67
2022/10/17 10:45:39;;;;;;;;;10.00;7.67;;;;;19.19;81.53;101692.81;4982288;27;45517;-68
2022/10/17 10:48:36;;;;;;;;;12.00;10.67;;;;;19.15;81.65;101688.50;4973483;27;45361;-67
2022/10/17 10:51:18;;;;;;;;;14.33;13.33;;;;;19.17;81.81;101705.28;4978163;27;45556;-67
2022/10/17 10:53:56;;;;;;;;;13.33;12.33;;;;;19.19;81.58;101710.53;4972880;27;45432;-66
2022/10/17 10:56:39;;;;;;;;;15.00;12.67;;;;;19.16;81.49;101706.16;4985129;27;45440;-66
2022/10/17 10:59:08;;;;;;;;;14.67;12.00;;;;;19.19;81.76;101719.38;4975078;28;45307;-70
2022/10/17 11:01:47;;;;;;;;;14.67;11.67;;;;;19.11;81.63;101729.28;4975632;27;45449;-67
2022/10/17 11:04:21;;;;;;;;;13.33;10.00;;;;;19.22;81.67;101713.13;4984442;27;46199;-65
2022/10/17 11:06:51;;;;;;;;;14.00;11.33;;;;;19.28;81.32;101699.75;4983589;27;45487;-68
2022/10/17 11:09:16;;;;;;;;;10.33;9.67;;;;;19.34;80.95;101694.31;4987113;28;45227;-67
2022/10/17 11:11:53;;;;;;;;;16.00;14.33;;;;;19.27;81.62;101684.72;4984772;27;45325;-66
2022/10/17 11:14:34;;;;;;;;;18.33;18.00;;;;;19.25;81.87;101721.06;4978169;27;46237;-68
2022/10/17 11:17:17;;;;;;;;;17.33;17.33;;;;;19.20;82.57;101725.59;4981917;27;45700;-68
2022/10/17 11:19:58;;;;;;;;;15.00;14.00;;;;;19.19;82.59;101721.16;4991058;27;45444;-69
2022/10/17 11:22:33;;;;;;;;;17.33;15.67;;;;;19.20;82.73;101736.22;4988302;27;45497;-66
2022/10/17 11:25:11;;;;;;;;;19.67;16.00;;;;;19.19;82.67;101753.03;4969601;27;46473;-67
2022/10/17 11:27:37;;;;;;;;;19.33;18.00;;;;;19.16;82.97;101738.03;4979807;27;45502;-66
2022/10/17 11:30:04;;;;;;;;;20.00;15.67;;;;;19.20;82.72;101741.53;4989666;27;45401;-70
2022/10/17 11:32:36;;;;;;;;;17.67;15.33;;;;;19.14;83.03;101723.03;4989055;27;45989;-66
2022/10/17 11:35:23;;;;;;;;;16.67;12.67;;;;;19.20;82.88;101718.47;4994446;27;45973;-68
2022/10/17 11:38:04;;;;;;;;;13.00;12.00;;;;;19.28;82.54;101723.66;4983761;27;45496;-70